createdAt,value
2018-08-16T00:01:32.958Z,25.20
2018-08-16T00:04:02.747Z,25.20
2018-08-16T00:06:32.507Z,25.30
2018-08-16T00:09:02.150Z,25.10
2018-08-16T00:11:31.794Z,25.00
2018-08-16T00:14:01.453Z,25.10
2018-08-16T00:16:31.277Z,25.10
2018-08-16T00:19:00.965Z,24.90
2018-08-16T00:21:30.575Z,24.90
2018-08-16T00:24:00.329Z,24.80
2018-08-16T00:26:30.005Z,24.90
2018-08-16T00:28:59.635Z,24.90
2018-08-16T00:31:29.280Z,24.80
2018-08-16T00:33:58.896Z,24.80
2018-08-16T00:36:28.470Z,24.70
2018-08-16T00:38:58.117Z,24.90
2018-08-16T00:41:27.702Z,24.70
2018-08-16T00:43:57.382Z,24.80
2018-08-16T00:46:26.978Z,24.70
2018-08-16T00:48:56.550Z,24.70
2018-08-16T00:51:26.173Z,24.60
2018-08-16T00:53:55.828Z,24.70
2018-08-16T00:56:25.410Z,24.70
2018-08-16T00:58:55.121Z,24.70
2018-08-16T01:01:24.735Z,24.60
2018-08-16T01:03:54.538Z,24.70
2018-08-16T01:06:24.190Z,24.70
2018-08-16T01:08:53.849Z,24.70
2018-08-16T01:11:23.464Z,24.60
2018-08-16T01:13:53.255Z,24.70
2018-08-16T01:16:22.807Z,24.60
2018-08-16T01:18:52.487Z,24.40
2018-08-16T01:21:22.167Z,24.60
2018-08-16T01:23:51.875Z,24.50
2018-08-16T01:26:21.484Z,24.60
2018-08-16T01:28:51.118Z,24.40
2018-08-16T01:31:20.809Z,24.30
2018-08-16T01:33:50.376Z,24.20
2018-08-16T01:36:19.942Z,24.20
2018-08-16T01:38:49.508Z,24.00
2018-08-16T01:41:19.205Z,24.00
2018-08-16T01:43:48.808Z,23.90
2018-08-16T01:46:18.328Z,23.90
2018-08-16T01:48:47.941Z,23.90
2018-08-16T01:51:17.591Z,23.80
2018-08-16T01:53:47.209Z,23.90
2018-08-16T01:56:16.817Z,23.90
2018-08-16T01:58:46.418Z,23.90
2018-08-16T02:01:16.024Z,23.80
2018-08-16T02:03:45.550Z,23.80
2018-08-16T02:06:15.330Z,23.80
2018-08-16T02:08:44.957Z,23.90
2018-08-16T02:11:14.568Z,23.90
2018-08-16T02:13:44.155Z,23.90
2018-08-16T02:16:13.781Z,24.00
2018-08-16T02:18:43.343Z,24.00
2018-08-16T02:21:13.040Z,24.00
2018-08-16T02:23:42.604Z,23.80
2018-08-16T02:26:12.220Z,23.60
2018-08-16T02:28:41.832Z,23.70
2018-08-16T02:31:11.450Z,23.70
2018-08-16T02:33:41.100Z,23.70
2018-08-16T02:36:10.693Z,23.80
2018-08-16T02:38:40.340Z,23.70
2018-08-16T02:41:09.950Z,23.80
2018-08-16T02:43:39.580Z,23.70
2018-08-16T02:46:09.570Z,23.80
2018-08-16T02:48:39.153Z,23.80
2018-08-16T02:51:08.899Z,23.80
2018-08-16T02:53:38.558Z,23.90
2018-08-16T02:56:08.211Z,24.00
2018-08-16T02:58:37.794Z,24.00
2018-08-16T03:01:07.507Z,23.90
2018-08-16T03:03:37.118Z,23.90
2018-08-16T03:06:07.020Z,23.90
2018-08-16T03:08:36.620Z,23.90
2018-08-16T03:11:06.458Z,24.00
2018-08-16T03:13:36.149Z,24.10
2018-08-16T03:16:05.734Z,24.10
2018-08-16T03:18:35.455Z,24.00
2018-08-16T03:21:05.089Z,23.80
2018-08-16T03:23:34.647Z,23.80
2018-08-16T03:26:04.252Z,23.90
2018-08-16T03:28:33.855Z,23.90
2018-08-16T03:31:03.494Z,23.80
2018-08-16T03:33:33.222Z,23.80
2018-08-16T03:36:02.785Z,23.90
2018-08-16T03:38:32.385Z,23.90
2018-08-16T03:41:02.039Z,24.00
2018-08-16T03:43:31.591Z,23.90
2018-08-16T03:46:01.304Z,23.80
2018-08-16T03:48:31.420Z,23.90
2018-08-16T03:51:01.132Z,23.90
2018-08-16T03:53:30.755Z,23.90
2018-08-16T03:56:00.344Z,24.00
2018-08-16T03:58:29.987Z,24.10
2018-08-16T04:00:59.579Z,23.90
2018-08-16T04:03:29.191Z,23.80
2018-08-16T04:05:58.828Z,23.90
2018-08-16T04:08:28.442Z,23.90
2018-08-16T04:10:58.065Z,23.80
2018-08-16T04:13:27.641Z,23.80
2018-08-16T04:15:57.215Z,23.80
2018-08-16T04:18:26.841Z,23.90
2018-08-16T04:20:56.444Z,23.80
2018-08-16T04:23:26.023Z,23.80
2018-08-16T04:25:55.736Z,23.70
2018-08-16T04:28:25.293Z,23.40
2018-08-16T04:30:54.876Z,23.60
2018-08-16T04:33:24.483Z,23.60
2018-08-16T04:35:54.068Z,23.50
2018-08-16T04:38:23.693Z,23.60
2018-08-16T04:40:53.332Z,23.70
2018-08-16T04:43:22.917Z,23.70
2018-08-16T04:45:52.522Z,23.50
2018-08-16T04:48:22.052Z,23.60
2018-08-16T04:50:51.751Z,23.60
2018-08-16T04:53:21.347Z,23.50
2018-08-16T04:55:50.897Z,23.50
2018-08-16T04:58:20.509Z,23.40
2018-08-16T05:00:50.956Z,23.50
2018-08-16T05:03:20.541Z,23.50
2018-08-16T05:05:50.178Z,23.50
2018-08-16T05:08:19.719Z,23.30
2018-08-16T05:10:49.412Z,23.40
2018-08-16T05:13:18.949Z,23.50
2018-08-16T05:15:48.493Z,23.60
2018-08-16T05:18:18.140Z,23.70
2018-08-16T05:20:47.717Z,23.60
2018-08-16T05:23:17.270Z,23.60
2018-08-16T05:25:47.739Z,23.60
2018-08-16T05:28:17.286Z,23.60
2018-08-16T05:30:46.911Z,23.70
2018-08-16T05:33:16.503Z,23.70
2018-08-16T05:35:46.155Z,23.70
2018-08-16T05:38:15.731Z,23.70
2018-08-16T05:40:45.378Z,23.80
2018-08-16T05:43:15.028Z,23.70
2018-08-16T05:45:44.661Z,23.50
2018-08-16T05:48:14.298Z,23.50
2018-08-16T05:50:43.920Z,23.40
2018-08-16T05:53:13.532Z,23.40
2018-08-16T05:55:43.128Z,23.50
2018-08-16T05:58:12.727Z,23.40
2018-08-16T06:00:42.289Z,23.40
2018-08-16T06:03:11.922Z,23.50
2018-08-16T06:05:41.530Z,23.50
2018-08-16T06:08:11.288Z,23.60
2018-08-16T06:10:40.879Z,23.60
2018-08-16T06:13:10.574Z,23.60
2018-08-16T06:15:40.193Z,23.70
2018-08-16T06:18:10.087Z,23.80
2018-08-16T06:20:40.138Z,23.80
2018-08-16T06:23:09.747Z,23.80
2018-08-16T06:25:39.369Z,23.90
2018-08-16T06:28:08.973Z,24.10
2018-08-16T06:30:38.570Z,24.10
2018-08-16T06:33:08.184Z,24.10
2018-08-16T06:35:37.781Z,24.30
2018-08-16T06:38:08.046Z,24.50
2018-08-16T06:40:37.746Z,24.60
2018-08-16T06:43:07.462Z,24.70
2018-08-16T06:45:37.107Z,24.70
2018-08-16T06:48:06.852Z,24.70
2018-08-16T06:50:36.495Z,24.70
2018-08-16T06:53:06.111Z,25.00
2018-08-16T06:55:35.729Z,25.10
2018-08-16T06:58:05.544Z,25.20
2018-08-16T07:00:35.145Z,25.50
2018-08-16T07:03:04.833Z,25.50
2018-08-16T07:05:34.560Z,25.50
2018-08-16T07:08:04.284Z,25.80
2018-08-16T07:10:33.965Z,25.90
2018-08-16T07:13:07.450Z,26.00
2018-08-16T07:15:37.132Z,26.20
2018-08-16T07:18:06.785Z,26.30
2018-08-16T07:20:37.819Z,26.40
2018-08-16T07:23:08.845Z,26.60
2018-08-16T07:25:38.472Z,26.80
2018-08-16T07:28:08.060Z,26.90
2018-08-16T07:30:37.677Z,27.00
2018-08-16T07:33:07.414Z,26.80
2018-08-16T07:35:37.158Z,27.00
2018-08-16T07:38:06.843Z,26.80
2018-08-16T07:40:36.500Z,26.70
2018-08-16T07:43:06.087Z,26.90
2018-08-16T07:45:35.728Z,27.10
2018-08-16T07:48:05.997Z,27.10
2018-08-16T07:50:35.717Z,27.20
2018-08-16T07:53:05.407Z,27.00
2018-08-16T07:55:40.562Z,26.90
2018-08-16T07:58:10.352Z,27.10
2018-08-16T08:00:39.920Z,27.30
2018-08-16T08:03:10.068Z,27.30
2018-08-16T08:05:41.264Z,27.30
2018-08-16T08:08:10.958Z,27.50
2018-08-16T08:10:40.680Z,27.60
2018-08-16T08:13:10.419Z,27.60
2018-08-16T08:15:40.192Z,27.60
2018-08-16T08:18:10.358Z,27.50
2018-08-16T08:20:40.416Z,27.60
2018-08-16T08:23:10.380Z,27.60
2018-08-16T08:25:40.003Z,27.60
2018-08-16T08:28:09.659Z,27.70
2018-08-16T08:30:39.369Z,27.80
2018-08-16T08:33:08.926Z,27.90
2018-08-16T08:35:38.546Z,27.80
2018-08-16T08:38:22.593Z,28.00
2018-08-16T08:40:52.183Z,28.00
2018-08-16T08:43:32.542Z,28.10
2018-08-16T08:46:02.102Z,28.00
2018-08-16T08:48:32.045Z,28.10
2018-08-16T08:51:01.616Z,28.10
2018-08-16T08:55:00.004Z,28.30
2018-08-16T08:57:40.284Z,28.30
2018-08-16T09:00:09.939Z,28.40
2018-08-16T09:02:39.567Z,28.60
2018-08-16T09:05:09.324Z,28.50
2018-08-16T09:07:39.041Z,28.50
2018-08-16T09:11:19.180Z,28.50
2018-08-16T09:14:00.824Z,28.50
2018-08-16T09:16:32.891Z,28.50
2018-08-16T09:19:02.819Z,28.80
2018-08-16T09:21:33.072Z,28.80
2018-08-16T09:24:02.958Z,28.50
2018-08-16T09:26:37.855Z,28.60
2018-08-16T09:29:18.210Z,28.90
2018-08-16T09:31:58.354Z,28.90
2018-08-16T09:34:27.956Z,28.90
2018-08-16T09:36:58.159Z,28.90
2018-08-16T09:39:27.943Z,28.80
2018-08-16T09:41:57.429Z,28.80
2018-08-16T09:44:27.075Z,28.80
2018-08-16T09:47:09.158Z,29.10
2018-08-16T09:49:45.181Z,29.10
2018-08-16T09:52:16.465Z,29.20
2018-08-16T09:54:46.207Z,29.10
2018-08-16T09:57:16.375Z,29.20
2018-08-16T09:59:45.987Z,29.30
2018-08-16T10:02:17.223Z,29.40
2018-08-16T10:04:46.795Z,29.40
2018-08-16T10:07:16.380Z,29.40
2018-08-16T10:09:46.164Z,29.40
2018-08-16T10:12:15.846Z,29.50
2018-08-16T10:14:45.389Z,29.40
2018-08-16T10:17:16.114Z,29.30
2018-08-16T10:19:45.657Z,29.50
2018-08-16T10:22:15.319Z,29.60
2018-08-16T10:24:44.949Z,29.60
2018-08-16T10:27:15.131Z,29.90
2018-08-16T10:29:44.798Z,29.70
2018-08-16T10:32:15.111Z,29.70
2018-08-16T10:34:44.670Z,29.90
2018-08-16T10:37:14.304Z,30.00
2018-08-16T10:39:43.876Z,29.90
2018-08-16T10:42:13.529Z,29.90
2018-08-16T10:44:43.482Z,30.00
2018-08-16T10:47:13.155Z,29.80
2018-08-16T10:49:42.758Z,29.80
2018-08-16T10:52:12.367Z,30.00
2018-08-16T10:54:42.848Z,30.10
2018-08-16T10:57:12.443Z,30.10
2018-08-16T10:59:42.050Z,30.10
2018-08-16T11:02:11.774Z,30.30
2018-08-16T11:04:41.409Z,30.30
2018-08-16T11:07:10.946Z,30.30
2018-08-16T11:09:40.515Z,30.30
2018-08-16T11:12:16.700Z,30.50
2018-08-16T11:14:46.312Z,30.30
2018-08-16T11:17:17.000Z,30.10
2018-08-16T11:19:46.642Z,30.30
2018-08-16T11:22:16.227Z,30.30
2018-08-16T11:24:45.884Z,30.70
2018-08-16T11:27:15.596Z,30.30
2018-08-16T11:29:45.231Z,30.40
2018-08-16T11:32:14.807Z,30.90
2018-08-16T11:34:44.469Z,31.00
2018-08-16T11:37:14.303Z,30.80
2018-08-16T11:39:44.003Z,31.20
2018-08-16T11:42:13.712Z,30.90
2018-08-16T11:44:43.312Z,31.00
2018-08-16T11:47:13.831Z,31.20
2018-08-16T11:49:43.416Z,31.50
2018-08-16T11:52:12.991Z,31.50
2018-08-16T11:54:42.603Z,31.50
2018-08-16T11:57:12.197Z,31.60
2018-08-16T11:59:41.793Z,31.60
2018-08-16T12:02:11.495Z,31.40
2018-08-16T12:04:41.337Z,31.50
2018-08-16T12:07:11.022Z,31.80
2018-08-16T12:09:40.597Z,31.30
2018-08-16T12:12:10.183Z,31.80
2018-08-16T12:14:39.776Z,32.10
2018-08-16T12:17:09.383Z,32.70
2018-08-16T12:19:38.918Z,32.60
2018-08-16T12:22:08.595Z,32.20
2018-08-16T12:24:38.193Z,31.90
2018-08-16T12:27:07.936Z,32.20
2018-08-16T12:29:37.599Z,32.20
2018-08-16T12:32:07.243Z,32.90
2018-08-16T12:34:36.808Z,32.80
2018-08-16T12:37:06.419Z,32.90
2018-08-16T12:39:36.067Z,32.70
2018-08-16T12:42:06.064Z,32.80
2018-08-16T12:44:35.837Z,33.40
2018-08-16T12:47:05.570Z,33.30
2018-08-16T12:49:35.144Z,33.50
2018-08-16T12:52:04.816Z,33.10
2018-08-16T12:54:34.491Z,33.20
2018-08-16T12:57:04.137Z,33.20
2018-08-16T12:59:33.739Z,33.40
2018-08-16T13:02:03.398Z,32.90
2018-08-16T13:04:33.001Z,33.10
2018-08-16T13:07:02.643Z,33.40
2018-08-16T13:09:32.224Z,33.60
2018-08-16T13:12:01.955Z,33.40
2018-08-16T13:14:31.605Z,33.70
2018-08-16T13:17:01.203Z,33.90
2018-08-16T13:19:30.810Z,34.00
2018-08-16T13:22:00.393Z,33.80
2018-08-16T13:24:30.133Z,33.90
2018-08-16T13:26:59.715Z,33.80
2018-08-16T13:29:29.293Z,33.80
2018-08-16T13:31:58.918Z,33.90
2018-08-16T13:34:28.525Z,34.00
2018-08-16T13:36:58.159Z,34.40
2018-08-16T13:39:27.726Z,34.60
2018-08-16T13:41:57.281Z,34.80
2018-08-16T13:44:26.903Z,34.80
2018-08-16T13:46:56.490Z,34.50
2018-08-16T13:49:26.022Z,34.30
2018-08-16T13:51:55.664Z,34.40
2018-08-16T13:54:25.243Z,34.70
2018-08-16T13:56:54.807Z,35.00
2018-08-16T13:59:24.375Z,35.00
2018-08-16T14:01:53.928Z,35.00
2018-08-16T14:04:23.505Z,34.90
2018-08-16T14:06:53.090Z,34.80
2018-08-16T14:09:22.612Z,34.10
2018-08-16T14:11:52.294Z,33.90
2018-08-16T14:14:21.915Z,34.70
2018-08-16T14:16:51.581Z,34.80
2018-08-16T14:19:21.558Z,34.60
2018-08-16T14:21:51.133Z,34.20
2018-08-16T14:24:20.717Z,34.90
2018-08-16T14:26:50.327Z,34.60
2018-08-16T14:29:19.895Z,34.70
2018-08-16T14:31:49.491Z,34.60
2018-08-16T14:34:19.072Z,35.30
2018-08-16T14:36:48.644Z,35.20
2018-08-16T14:39:18.290Z,35.40
2018-08-16T14:41:47.880Z,36.30
2018-08-16T14:44:17.525Z,36.10
2018-08-16T14:46:47.157Z,35.40
2018-08-16T14:49:16.760Z,36.20
2018-08-16T14:51:46.959Z,35.60
2018-08-16T14:54:18.919Z,34.60
2018-08-16T14:56:48.509Z,36.00
2018-08-16T14:59:18.439Z,36.40
2018-08-16T15:01:48.064Z,35.70
2018-08-16T15:04:17.733Z,35.30
2018-08-16T15:06:47.420Z,35.30
2018-08-16T15:09:17.029Z,35.50
2018-08-16T15:11:46.588Z,36.30
2018-08-16T15:14:16.318Z,36.60
2018-08-16T15:16:52.175Z,36.50
2018-08-16T15:19:22.479Z,35.90
2018-08-16T15:21:52.109Z,36.00
2018-08-16T15:24:22.202Z,35.90
2018-08-16T15:26:51.862Z,35.70
2018-08-16T15:29:21.722Z,35.40
2018-08-16T15:31:51.347Z,35.90
2018-08-16T15:34:21.009Z,35.60
2018-08-16T15:36:50.564Z,35.00
2018-08-16T15:39:20.330Z,35.40
2018-08-16T15:41:49.940Z,35.80
2018-08-16T15:44:19.549Z,35.50
2018-08-16T15:46:49.182Z,35.50
2018-08-16T15:49:18.769Z,35.60
2018-08-16T15:51:48.444Z,35.20
2018-08-16T15:54:18.096Z,35.30
2018-08-16T15:56:47.637Z,35.70
2018-08-16T15:59:17.417Z,36.10
2018-08-16T16:01:46.957Z,36.10
2018-08-16T16:04:16.605Z,35.30
2018-08-16T16:06:46.323Z,35.60
2018-08-16T16:09:15.882Z,36.00
2018-08-16T16:11:45.421Z,35.20
2018-08-16T16:14:15.119Z,35.10
2018-08-16T16:16:44.741Z,35.10
2018-08-16T16:19:14.383Z,35.70
2018-08-16T16:21:44.019Z,35.80
2018-08-16T16:24:13.663Z,35.80
2018-08-16T16:26:43.285Z,36.30
2018-08-16T16:29:12.851Z,35.80
2018-08-16T16:31:42.446Z,35.70
2018-08-16T16:34:12.089Z,35.80
2018-08-16T16:36:41.669Z,36.10
2018-08-16T16:39:13.081Z,35.40
2018-08-16T16:41:42.732Z,35.60
2018-08-16T16:44:12.388Z,35.40
2018-08-16T16:46:42.005Z,35.80
2018-08-16T16:49:11.713Z,35.20
2018-08-16T16:51:41.295Z,34.90
2018-08-16T16:54:10.881Z,34.80
2018-08-16T16:56:40.514Z,34.30
2018-08-16T16:59:10.190Z,34.30
2018-08-16T17:01:40.058Z,33.90
2018-08-16T17:04:09.691Z,33.90
2018-08-16T17:06:39.264Z,34.00
2018-08-16T17:09:10.958Z,34.00
2018-08-16T17:11:41.072Z,33.80
2018-08-16T17:14:10.718Z,33.60
2018-08-16T17:16:40.300Z,33.50
2018-08-16T17:19:09.925Z,33.50
2018-08-16T17:21:39.540Z,33.50
2018-08-16T17:24:09.267Z,33.20
2018-08-16T17:26:38.859Z,33.00
2018-08-16T17:29:14.145Z,32.90
2018-08-16T17:31:44.418Z,32.80
2018-08-16T17:34:14.482Z,32.50
2018-08-16T17:36:44.371Z,32.00
2018-08-16T17:39:14.195Z,31.40
2018-08-16T17:41:44.252Z,31.00
2018-08-16T17:44:14.023Z,30.70
2018-08-16T17:46:44.162Z,30.40
2018-08-16T17:49:13.793Z,30.10
2018-08-16T17:51:43.510Z,29.90
2018-08-16T17:54:13.453Z,29.70
2018-08-16T17:56:43.273Z,29.50
2018-08-16T17:59:12.884Z,29.10
2018-08-16T18:01:42.593Z,29.10
2018-08-16T18:04:12.448Z,28.90
2018-08-16T18:06:42.635Z,29.10
2018-08-16T18:09:17.793Z,29.00
2018-08-16T18:11:52.194Z,28.80
2018-08-16T18:14:21.848Z,28.70
2018-08-16T18:16:51.603Z,28.70
2018-08-16T18:19:21.482Z,28.60
2018-08-16T18:21:51.159Z,28.70
2018-08-16T18:24:20.789Z,28.50
2018-08-16T18:26:50.393Z,28.10
2018-08-16T18:29:20.504Z,28.10
2018-08-16T18:31:50.578Z,28.00
2018-08-16T18:34:20.398Z,27.90
2018-08-16T18:36:50.339Z,28.00
2018-08-16T18:39:20.278Z,28.10
2018-08-16T18:41:50.137Z,28.10
2018-08-16T18:44:19.865Z,28.30
2018-08-16T18:46:49.683Z,28.20
2018-08-16T18:49:19.455Z,28.20
2018-08-16T18:51:49.481Z,28.00
2018-08-16T18:54:19.281Z,28.00
2018-08-16T18:56:49.106Z,28.20
2018-08-16T18:59:19.827Z,28.00
2018-08-16T19:01:51.119Z,27.90
2018-08-16T19:04:21.200Z,27.80
2018-08-16T19:06:51.435Z,27.70
2018-08-16T19:09:21.810Z,27.50
2018-08-16T19:11:52.309Z,27.50
2018-08-16T19:14:23.087Z,27.50
2018-08-16T19:16:53.652Z,27.50
2018-08-16T19:19:24.197Z,27.30
2018-08-16T19:21:54.726Z,27.40
2018-08-16T19:24:25.242Z,27.20
2018-08-16T19:26:56.604Z,26.90
2018-08-16T19:29:27.100Z,27.00
2018-08-16T19:31:58.211Z,27.10
2018-08-16T19:34:28.728Z,27.20
2018-08-16T19:36:59.264Z,27.20
2018-08-16T19:39:29.698Z,27.20
2018-08-16T19:42:00.220Z,27.20
2018-08-16T19:44:30.923Z,27.00
2018-08-16T19:47:01.487Z,27.10
2018-08-16T19:49:31.958Z,27.00
2018-08-16T19:52:02.415Z,26.70
2018-08-16T19:54:32.995Z,26.50
2018-08-16T19:57:03.467Z,26.40
2018-08-16T19:59:33.921Z,26.40
2018-08-16T20:02:04.405Z,26.30
2018-08-16T20:04:34.925Z,26.20
2018-08-16T20:07:05.468Z,26.00
2018-08-16T20:09:35.905Z,26.20
2018-08-16T20:12:06.496Z,26.00
2018-08-16T20:14:37.032Z,26.30
2018-08-16T20:17:07.487Z,26.20
2018-08-16T20:19:38.079Z,26.00
2018-08-16T20:22:14.213Z,26.20
2018-08-16T20:24:44.335Z,26.20
2018-08-16T20:27:14.599Z,26.20
2018-08-16T20:29:45.237Z,26.20
2018-08-16T20:32:15.480Z,26.00
2018-08-16T20:34:45.689Z,26.00
2018-08-16T20:37:18.114Z,26.30
2018-08-16T20:39:48.844Z,26.30
2018-08-16T20:42:24.312Z,26.20
2018-08-16T20:44:55.618Z,26.20
2018-08-16T20:47:26.100Z,26.00
2018-08-16T20:49:58.918Z,26.10
2018-08-16T20:52:30.184Z,26.10
2018-08-16T20:55:00.805Z,25.90
2018-08-16T20:57:33.951Z,26.10
2018-08-16T21:00:05.877Z,25.80
2018-08-16T21:02:37.223Z,26.00
2018-08-16T21:05:11.073Z,26.20
2018-08-16T21:07:43.286Z,26.10
2018-08-16T21:10:18.192Z,26.10
2018-08-16T21:12:48.399Z,26.00
2018-08-16T21:15:21.927Z,25.70
2018-08-16T21:17:52.269Z,25.70
2018-08-16T21:20:23.591Z,25.70
2018-08-16T21:22:55.999Z,25.50
2018-08-16T21:25:27.537Z,25.70
2018-08-16T21:28:01.377Z,25.70
2018-08-16T21:30:31.239Z,25.50
2018-08-16T21:33:04.429Z,25.50
2018-08-16T21:35:36.324Z,25.90
2018-08-16T21:38:08.565Z,25.60
2018-08-16T21:40:40.653Z,25.70
2018-08-16T21:43:13.063Z,25.60
2018-08-16T21:45:43.224Z,25.40
2018-08-16T21:48:14.988Z,25.50
2018-08-16T21:50:49.161Z,25.70
2018-08-16T21:53:21.212Z,25.50
2018-08-16T21:55:52.756Z,25.60
2018-08-16T21:58:22.760Z,25.90
2018-08-16T22:00:57.471Z,26.10
2018-08-16T22:03:31.157Z,26.10
2018-08-16T22:06:07.762Z,26.10
2018-08-16T22:08:52.797Z,26.00
2018-08-16T22:11:25.690Z,25.90
2018-08-16T22:13:58.034Z,26.00
2018-08-16T22:16:32.982Z,25.90
2018-08-16T22:19:02.703Z,25.80
2018-08-16T22:21:32.460Z,26.00
2018-08-16T22:24:02.141Z,26.10
2018-08-16T22:26:31.846Z,25.50
2018-08-16T22:29:01.572Z,25.10
2018-08-16T22:31:31.391Z,24.90
2018-08-16T22:34:01.134Z,24.90
2018-08-16T22:36:30.964Z,24.70
2018-08-16T22:39:04.199Z,24.80
2018-08-16T22:41:33.927Z,24.70
2018-08-16T22:44:03.607Z,24.60
2018-08-16T22:46:33.330Z,24.60
2018-08-16T22:49:03.078Z,24.60
2018-08-16T22:51:32.759Z,24.70
2018-08-16T22:54:02.597Z,24.60
2018-08-16T22:56:32.351Z,24.70
2018-08-16T22:59:02.043Z,24.60
2018-08-16T23:01:31.793Z,24.90
2018-08-16T23:04:01.520Z,24.90
2018-08-16T23:06:31.276Z,24.80
2018-08-16T23:09:01.007Z,24.70
2018-08-16T23:11:30.730Z,24.70
2018-08-16T23:14:00.405Z,24.80
2018-08-16T23:16:30.197Z,24.80
2018-08-16T23:18:59.872Z,24.80
2018-08-16T23:21:29.607Z,24.80
2018-08-16T23:23:59.285Z,24.70
2018-08-16T23:26:29.001Z,24.80
2018-08-16T23:28:58.709Z,24.90
2018-08-16T23:31:28.402Z,24.80
2018-08-16T23:33:58.107Z,24.80
2018-08-16T23:36:27.800Z,24.80
2018-08-16T23:38:57.483Z,24.80
2018-08-16T23:41:27.196Z,24.70
2018-08-16T23:43:56.916Z,24.60
2018-08-16T23:46:26.609Z,24.70
2018-08-16T23:48:56.344Z,24.80
2018-08-16T23:51:25.995Z,24.80
2018-08-16T23:53:55.704Z,24.80
2018-08-16T23:56:25.492Z,24.80
2018-08-16T23:58:55.236Z,24.80
